Time;durP1;ratioP1;P1;durP2;ratioP2;P2;SDS_P1;SDS_P2;PMS_P1;PMS_P2;Temp;Humidity;BMP_temperature;BMP_pressure;BME280_temperature;BME280_humidity;BME280_pressure;Samples;Min_cycle;Max_cycle;Signal;HPM_P1;HPM_P2
2021/05/03 00:02:15;;;;;;;4.97;3.58;;;15.60;52.40;;;;;;4939903;28;20036;-59
2021/05/03 00:04:41;;;;;;;4.55;2.47;;;15.60;52.60;;;;;;4940357;28;20507;-59
2021/05/03 00:07:07;;;;;;;5.50;3.05;;;15.50;52.10;;;;;;4939230;28;20036;-59
2021/05/03 00:09:32;;;;;;;3.83;2.50;;;15.30;52.40;;;;;;4940165;28;20044;-60
2021/05/03 00:11:58;;;;;;;5.43;2.83;;;15.10;53.00;;;;;;4954107;28;20035;-59
2021/05/03 00:14:24;;;;;;;4.60;2.55;;;15.00;53.30;;;;;;4940688;28;20044;-59
2021/05/03 00:16:50;;;;;;;5.80;2.50;;;14.50;53.00;;;;;;4939193;28;20043;-59
2021/05/03 00:19:16;;;;;;;4.95;2.78;;;14.20;54.10;;;;;;4939753;28;20158;-59
2021/05/03 00:21:42;;;;;;;3.38;2.45;;;14.20;54.50;;;;;;4939317;28;20134;-59
2021/05/03 00:24:08;;;;;;;5.97;3.05;;;14.40;54.70;;;;;;4940472;28;20043;-59
2021/05/03 00:26:34;;;;;;;4.20;2.30;;;14.60;54.60;;;;;;4938759;28;20051;-59
2021/05/03 00:28:59;;;;;;;4.10;2.55;;;14.80;54.40;;;;;;4940508;28;20047;-59
2021/05/03 00:31:25;;;;;;;4.95;2.95;;;14.90;54.30;;;;;;4940632;28;20126;-59
2021/05/03 00:33:51;;;;;;;3.88;2.47;;;15.00;54.00;;;;;;4939687;28;20393;-59
2021/05/03 00:36:17;;;;;;;3.60;2.63;;;15.10;54.10;;;;;;4939173;28;20049;-59
2021/05/03 00:38:43;;;;;;;5.18;2.70;;;15.20;54.00;;;;;;4939657;28;20483;-59
2021/05/03 00:41:08;;;;;;;5.85;2.65;;;15.30;53.70;;;;;;4940528;28;20039;-59
2021/05/03 00:43:34;;;;;;;4.35;2.53;;;15.30;53.30;;;;;;4957043;28;20050;-59
2021/05/03 00:46:00;;;;;;;4.75;2.40;;;15.50;53.10;;;;;;4942889;28;20079;-59
2021/05/03 00:48:27;;;;;;;4.05;2.10;;;15.50;53.00;;;;;;4943120;28;20106;-59
2021/05/03 00:50:53;;;;;;;3.88;2.47;;;15.60;52.90;;;;;;4943468;28;20027;-59
2021/05/03 00:53:19;;;;;;;3.60;2.17;;;15.60;53.00;;;;;;4943724;28;20039;-60
2021/05/03 00:55:45;;;;;;;4.72;2.50;;;15.70;52.80;;;;;;4942599;28;20039;-59
2021/05/03 00:58:12;;;;;;;3.35;1.63;;;15.70;53.00;;;;;;4942224;28;20051;-59
2021/05/03 01:00:38;;;;;;;5.00;2.22;;;15.70;52.80;;;;;;4943184;28;20039;-59
2021/05/03 01:03:06;;;;;;;3.42;1.55;;;15.60;52.70;;;;;;4942902;28;20240;-59
2021/05/03 01:05:33;;;;;;;4.35;2.03;;;15.50;51.90;;;;;;4943375;28;20758;-59
2021/05/03 01:08:00;;;;;;;3.90;2.15;;;15.40;51.90;;;;;;4944646;28;20035;-59
2021/05/03 01:10:26;;;;;;;3.95;1.80;;;15.30;52.20;;;;;;4944781;28;20035;-59
2021/05/03 01:12:53;;;;;;;4.45;1.77;;;15.30;52.50;;;;;;4942407;28;20050;-59
2021/05/03 01:15:24;;;;;;;2.90;1.60;;;15.30;52.70;;;;;;4942042;28;20074;-59
2021/05/03 01:18:02;;;;;;;3.28;2.00;;;15.40;52.50;;;;;;4941575;28;20123;-59
2021/05/03 01:20:30;;;;;;;2.58;1.83;;;15.40;52.50;;;;;;4942558;28;22353;-59
2021/05/03 01:22:57;;;;;;;2.78;1.55;;;15.50;52.50;;;;;;4942587;28;20043;-59
2021/05/03 01:25:32;;;;;;;2.78;1.67;;;15.50;52.30;;;;;;4941055;28;20059;-59
2021/05/03 01:28:00;;;;;;;2.15;1.20;;;15.50;52.30;;;;;;4943358;28;20043;-59
2021/05/03 01:30:31;;;;;;;2.42;1.30;;;15.40;52.30;;;;;;4943396;28;20480;-59
2021/05/03 01:32:57;;;;;;;2.53;1.42;;;15.40;52.40;;;;;;4941237;28;20051;-59
2021/05/03 01:35:23;;;;;;;2.88;1.67;;;15.40;52.40;;;;;;4941575;28;20051;-59
2021/05/03 01:37:54;;;;;;;3.58;1.65;;;15.40;52.30;;;;;;4941379;28;20050;-59
2021/05/03 01:40:22;;;;;;;3.00;1.83;;;15.50;52.40;;;;;;4943000;28;20039;-59
2021/05/03 01:42:48;;;;;;;2.67;1.60;;;15.60;52.40;;;;;;4942005;28;20079;-59
2021/05/03 01:45:18;;;;;;;2.45;1.60;;;15.60;52.30;;;;;;4942013;28;20097;-59
2021/05/03 01:47:44;;;;;;;2.65;1.48;;;15.60;52.00;;;;;;4939709;28;20040;-59
2021/05/03 01:50:11;;;;;;;3.35;1.63;;;15.60;51.90;;;;;;4943487;28;20130;-59
2021/05/03 01:52:37;;;;;;;3.05;1.58;;;15.60;51.60;;;;;;4943632;28;20047;-59
2021/05/03 01:55:05;;;;;;;2.42;1.40;;;15.50;51.80;;;;;;4941762;28;20503;-59
2021/05/03 01:57:31;;;;;;;2.00;1.30;;;15.50;51.50;;;;;;4943047;28;20031;-59
2021/05/03 01:59:57;;;;;;;4.07;1.50;;;15.50;51.60;;;;;;4943829;28;20546;-59
2021/05/03 02:02:23;;;;;;;2.65;1.33;;;15.40;51.90;;;;;;4924843;28;20039;-61
2021/05/03 02:04:48;;;;;;;2.55;1.45;;;15.40;52.00;;;;;;4941678;28;20178;-60
2021/05/03 02:07:16;;;;;;;2.47;1.50;;;15.40;52.10;;;;;;4942704;28;20468;-59
2021/05/03 02:09:43;;;;;;;2.13;1.50;;;15.40;51.90;;;;;;4943092;28;20068;-59
2021/05/03 02:12:10;;;;;;;2.08;1.48;;;15.40;51.80;;;;;;4954336;28;20031;-59
2021/05/03 02:14:40;;;;;;;2.80;1.10;;;15.40;51.90;;;;;;4940522;28;20126;-60
2021/05/03 02:17:06;;;;;;;1.50;1.00;;;15.40;51.50;;;;;;4941199;28;20098;-59
2021/05/03 02:19:32;;;;;;;2.67;1.40;;;15.40;52.00;;;;;;4942370;28;20377;-59
2021/05/03 02:21:58;;;;;;;1.58;1.10;;;15.30;52.00;;;;;;4941584;28;20051;-59
2021/05/03 02:24:23;;;;;;;2.55;1.20;;;15.30;52.00;;;;;;4940360;28;20044;-59
2021/05/03 02:26:49;;;;;;;1.75;1.30;;;15.40;52.00;;;;;;4940887;28;20101;-59
2021/05/03 02:29:15;;;;;;;1.98;1.40;;;15.40;52.00;;;;;;4942615;28;20039;-59
2021/05/03 02:31:41;;;;;;;2.58;1.65;;;15.50;52.00;;;;;;4940367;28;20836;-59
2021/05/03 02:34:07;;;;;;;2.22;1.10;;;15.50;52.10;;;;;;4940745;28;20072;-59
2021/05/03 02:36:33;;;;;;;2.05;1.15;;;15.50;51.70;;;;;;4940736;28;20105;-59
2021/05/03 02:38:58;;;;;;;1.95;1.08;;;15.50;51.90;;;;;;4941917;28;20043;-59
2021/05/03 02:41:24;;;;;;;2.38;1.25;;;15.50;52.10;;;;;;4942591;28;20043;-59
2021/05/03 02:43:50;;;;;;;1.85;1.15;;;15.50;51.90;;;;;;4940874;28;20536;-59
2021/05/03 02:46:16;;;;;;;1.77;1.17;;;15.50;51.90;;;;;;4956023;28;20035;-59
2021/05/03 02:48:42;;;;;;;2.30;1.20;;;15.50;51.80;;;;;;4943628;28;20050;-59
2021/05/03 02:51:08;;;;;;;2.45;1.20;;;15.50;51.70;;;;;;4940457;28;20092;-59
2021/05/03 02:53:34;;;;;;;4.93;1.30;;;15.40;51.60;;;;;;4940263;28;20114;-59
2021/05/03 02:56:00;;;;;;;2.22;1.30;;;15.30;51.40;;;;;;4922460;28;20162;-59
2021/05/03 02:58:25;;;;;;;2.03;1.15;;;15.20;51.90;;;;;;4941472;28;20039;-59
2021/05/03 03:00:51;;;;;;;2.75;1.25;;;15.10;52.10;;;;;;4939424;28;20039;-59
2021/05/03 03:03:17;;;;;;;8.95;1.20;;;15.20;52.20;;;;;;4939320;28;20058;-58
2021/05/03 03:05:43;;;;;;;10.45;1.42;;;15.30;52.00;;;;;;4939651;28;20048;-59
2021/05/03 03:08:08;;;;;;;1.75;0.70;;;15.30;52.30;;;;;;4942104;28;20519;-59
2021/05/03 03:10:34;;;;;;;1.48;1.00;;;15.30;52.20;;;;;;4940416;28;20040;-59
2021/05/03 03:13:03;;;;;;;3.13;0.80;;;15.30;52.00;;;;;;4940004;28;20130;-59
2021/05/03 03:15:31;;;;;;;1.27;0.80;;;15.30;52.00;;;;;;4939894;28;20035;-59
2021/05/03 03:17:57;;;;;;;2.88;1.30;;;15.30;52.40;;;;;;4941930;28;20047;-59
2021/05/03 03:20:24;;;;;;;1.00;0.70;;;15.30;52.10;;;;;;4940475;28;20047;-59
2021/05/03 03:22:50;;;;;;;1.38;0.70;;;15.30;52.10;;;;;;4940610;28;20405;-59
2021/05/03 03:25:16;;;;;;;2.30;1.05;;;15.30;52.00;;;;;;4940133;28;20038;-59
2021/05/03 03:27:42;;;;;;;2.33;0.93;;;15.40;52.00;;;;;;4942135;28;20051;-59
2021/05/03 03:30:10;;;;;;;4.70;0.88;;;15.40;52.00;;;;;;4939573;28;20043;-59
2021/05/03 03:32:41;;;;;;;1.73;0.82;;;15.30;51.70;;;;;;4939419;28;20109;-59
2021/05/03 03:35:07;;;;;;;1.58;0.88;;;15.30;52.00;;;;;;4923708;28;20050;-59
2021/05/03 03:37:33;;;;;;;0.90;0.50;;;15.30;52.00;;;;;;4940443;28;20708;-59
2021/05/03 03:39:59;;;;;;;2.00;1.00;;;15.40;52.00;;;;;;4940539;28;20044;-58
2021/05/03 03:42:24;;;;;;;2.35;0.65;;;15.40;51.90;;;;;;4936763;28;20040;-59
2021/05/03 03:44:50;;;;;;;2.97;1.13;;;15.50;51.80;;;;;;4940129;28;20062;-63
2021/05/03 03:47:16;;;;;;;3.05;1.50;;;15.50;51.10;;;;;;4941466;28;20420;-63
2021/05/03 03:49:41;;;;;;;2.22;1.50;;;15.10;50.30;;;;;;4940296;28;20097;-63
2021/05/03 03:52:08;;;;;;;3.95;1.58;;;14.30;50.80;;;;;;4953528;28;20035;-62
2021/05/03 03:54:33;;;;;;;2.70;2.13;;;13.70;52.00;;;;;;4939579;28;20051;-63
2021/05/03 03:56:59;;;;;;;2.25;1.60;;;13.00;53.10;;;;;;4939283;28;20059;-63
2021/05/03 03:59:25;;;;;;;3.03;2.17;;;12.40;54.50;;;;;;4941100;28;20032;-63
2021/05/03 04:01:51;;;;;;;2.70;1.77;;;12.00;55.50;;;;;;4938735;28;20415;-62
2021/05/03 04:04:26;;;;;;;2.83;1.75;;;11.60;56.40;;;;;;4939866;28;21046;-63
2021/05/03 04:25:57;;;;;;;2.65;2.00;;;9.80;61.70;;;;;;4907990;29;20048;-63
2021/05/03 04:28:22;;;;;;;4.65;2.60;;;9.70;62.20;;;;;;4907985;29;20044;-63
2021/05/03 04:30:48;;;;;;;2.35;1.83;;;9.60;62.60;;;;;;4924264;28;20098;-63
2021/05/03 04:33:14;;;;;;;3.30;2.63;;;9.60;63.10;;;;;;4943329;28;20183;-63
2021/05/03 04:35:40;;;;;;;2.88;2.38;;;9.40;63.50;;;;;;4945061;28;20118;-62
2021/05/03 04:38:06;;;;;;;5.18;2.90;;;9.30;64.00;;;;;;4958068;28;20062;-62
2021/05/03 04:40:32;;;;;;;3.50;2.40;;;9.10;64.60;;;;;;4944012;28;20090;-62
2021/05/03 04:42:57;;;;;;;2.85;2.10;;;8.90;65.30;;;;;;4958162;28;20146;-62
2021/05/03 04:45:23;;;;;;;3.60;2.47;;;8.90;65.80;;;;;;4942712;28;20035;-62
2021/05/03 04:47:49;;;;;;;3.75;2.80;;;8.90;66.00;;;;;;4957894;28;20034;-62
2021/05/03 04:50:15;;;;;;;3.25;2.70;;;8.90;66.30;;;;;;4944254;28;20078;-62
2021/05/03 04:52:42;;;;;;;3.42;2.42;;;8.90;66.50;;;;;;4944424;28;20051;-62
2021/05/03 04:55:09;;;;;;;3.78;2.88;;;8.90;66.80;;;;;;4942738;28;20039;-62
2021/05/03 04:57:35;;;;;;;4.30;2.72;;;8.80;66.80;;;;;;4942196;28;20527;-62
2021/05/03 05:00:01;;;;;;;3.13;2.70;;;8.70;67.20;;;;;;4942156;28;20974;-62
2021/05/03 05:02:28;;;;;;;4.95;2.90;;;8.60;67.60;;;;;;4942562;28;20044;-64
2021/05/03 05:04:54;;;;;;;3.35;2.88;;;8.50;68.10;;;;;;4956798;28;20126;-62
2021/05/03 05:07:21;;;;;;;20.98;5.13;;;8.40;68.60;;;;;;4943295;28;20047;-62
2021/05/03 05:09:47;;;;;;;5.00;3.30;;;8.20;69.40;;;;;;4942301;28;20050;-63
2021/05/03 05:12:13;;;;;;;5.50;3.40;;;8.10;70.00;;;;;;4942740;28;20047;-62
2021/05/03 05:14:38;;;;;;;4.40;2.95;;;7.90;70.50;;;;;;4944050;28;20043;-62
2021/05/03 05:17:05;;;;;;;4.28;3.20;;;7.80;71.30;;;;;;4941322;28;20126;-62
2021/05/03 05:19:31;;;;;;;4.10;3.03;;;7.80;71.80;;;;;;4941758;28;20047;-62
2021/05/03 05:21:57;;;;;;;5.38;3.40;;;7.80;72.30;;;;;;4943126;28;20039;-61
2021/05/03 05:24:22;;;;;;;6.38;4.07;;;7.90;72.60;;;;;;4942497;28;20043;-61
2021/05/03 05:26:48;;;;;;;4.15;3.75;;;7.90;72.50;;;;;;4942268;28;20035;-61
2021/05/03 05:29:14;;;;;;;4.85;4.15;;;8.00;72.50;;;;;;4945528;28;20054;-61
2021/05/03 05:31:41;;;;;;;4.75;3.75;;;8.00;72.50;;;;;;4942481;28;20036;-62
2021/05/03 05:34:06;;;;;;;8.00;4.63;;;8.00;72.80;;;;;;4940561;28;20063;-61
2021/05/03 05:36:32;;;;;;;5.65;4.05;;;8.10;73.20;;;;;;4942053;28;20043;-61
2021/05/03 05:39:00;;;;;;;6.93;5.00;;;8.10;73.00;;;;;;4923889;28;20095;-61
2021/05/03 05:41:26;;;;;;;5.28;4.30;;;8.20;73.10;;;;;;4941221;28;20035;-61
2021/05/03 05:43:52;;;;;;;7.03;4.53;;;8.20;73.30;;;;;;4942641;28;20046;-61
2021/05/03 05:46:18;;;;;;;7.43;5.53;;;8.30;73.40;;;;;;4941233;28;20098;-61
2021/05/03 05:48:46;;;;;;;8.30;5.38;;;8.30;73.70;;;;;;4942331;28;20048;-62
2021/05/03 05:51:12;;;;;;;6.95;4.82;;;8.20;73.60;;;;;;4942924;28;20436;-62
2021/05/03 05:53:39;;;;;;;7.28;4.20;;;8.20;74.00;;;;;;4943214;28;20073;-62
2021/05/03 05:56:05;;;;;;;6.45;5.45;;;8.20;74.20;;;;;;4941709;28;20395;-62
2021/05/03 05:58:32;;;;;;;6.43;4.85;;;8.20;74.00;;;;;;4940001;28;20063;-61
2021/05/03 06:01:03;;;;;;;6.72;4.97;;;8.10;74.20;;;;;;4941768;28;20504;-62
2021/05/03 06:03:29;;;;;;;7.20;4.30;;;8.10;74.40;;;;;;4955338;28;20716;-63
2021/05/03 06:05:57;;;;;;;5.45;4.25;;;8.10;74.20;;;;;;4940399;28;20043;-64
2021/05/03 06:08:24;;;;;;;7.30;3.47;;;8.10;73.90;;;;;;4941014;28;20047;-64
2021/05/03 06:10:50;;;;;;;4.57;3.35;;;8.10;74.00;;;;;;4955191;28;20047;-64
2021/05/03 06:13:15;;;;;;;3.78;3.35;;;8.10;74.20;;;;;;4940728;28;20093;-65
2021/05/03 06:15:41;;;;;;;4.63;3.78;;;8.20;74.20;;;;;;4941516;28;20059;-65
2021/05/03 06:18:08;;;;;;;4.97;3.35;;;8.20;74.30;;;;;;4941734;28;20079;-65
2021/05/03 06:20:34;;;;;;;4.78;3.45;;;8.30;74.10;;;;;;4940852;28;20039;-68
2021/05/03 06:23:06;;;;;;;4.35;3.05;;;8.40;73.90;;;;;;4941989;28;20076;-67
2021/05/03 06:25:33;;;;;;;3.78;3.38;;;8.40;73.70;;;;;;4939987;28;20046;-67
2021/05/03 06:27:59;;;;;;;4.05;3.53;;;8.30;73.50;;;;;;4941739;28;20047;-65
2021/05/03 06:30:26;;;;;;;3.92;3.53;;;8.30;73.70;;;;;;4939860;28;20043;-63
2021/05/03 06:32:53;;;;;;;3.65;3.20;;;8.30;73.80;;;;;;4941455;28;20051;-66
2021/05/03 06:35:19;;;;;;;4.22;3.42;;;8.20;73.70;;;;;;4941068;28;20488;-65
2021/05/03 06:37:45;;;;;;;4.80;3.42;;;8.10;73.90;;;;;;4939358;28;20048;-65
2021/05/03 06:40:12;;;;;;;5.70;3.60;;;8.00;74.10;;;;;;4940726;28;20094;-65
2021/05/03 06:42:38;;;;;;;4.63;4.00;;;7.80;74.50;;;;;;4938715;28;20560;-65
2021/05/03 06:45:05;;;;;;;5.22;4.70;;;7.70;75.00;;;;;;4939949;28;20043;-65
2021/05/03 06:47:31;;;;;;;5.68;4.85;;;7.50;75.60;;;;;;4941710;28;20063;-65
2021/05/03 06:49:56;;;;;;;5.25;4.75;;;7.40;76.40;;;;;;4940595;28;20949;-62
2021/05/03 06:52:22;;;;;;;6.97;4.38;;;7.40;77.00;;;;;;4941251;28;20169;-65
2021/05/03 06:54:50;;;;;;;4.38;3.97;;;7.50;77.20;;;;;;4937961;28;20141;-65
2021/05/03 06:57:19;;;;;;;6.10;4.55;;;7.60;77.10;;;;;;4940242;28;20032;-65
2021/05/03 06:59:45;;;;;;;4.57;4.00;;;7.60;77.00;;;;;;4942140;28;20095;-65
2021/05/03 07:02:11;;;;;;;4.43;3.33;;;7.50;76.90;;;;;;4940124;28;20524;-65
2021/05/03 07:04:38;;;;;;;5.05;3.63;;;7.50;77.20;;;;;;4940262;28;20081;-64
2021/05/03 07:07:03;;;;;;;2.90;2.58;;;7.60;77.40;;;;;;4940475;28;20047;-64
2021/05/03 07:09:29;;;;;;;5.32;4.15;;;7.60;77.30;;;;;;4942414;28;20039;-64
2021/05/03 07:11:56;;;;;;;4.88;3.58;;;7.80;77.40;;;;;;4939258;28;20063;-64
2021/05/03 07:14:22;;;;;;;3.55;2.92;;;7.80;77.00;;;;;;4954615;28;20071;-64
2021/05/03 07:16:48;;;;;;;5.88;3.45;;;7.90;76.70;;;;;;4941025;28;20131;-65
2021/05/03 07:19:14;;;;;;;5.00;3.47;;;7.90;76.50;;;;;;4940330;28;20932;-64
2021/05/03 07:21:39;;;;;;;5.28;3.13;;;8.00;76.40;;;;;;4940357;28;20047;-63
2021/05/03 07:24:06;;;;;;;3.38;2.97;;;8.10;76.40;;;;;;4940540;28;20506;-62
2021/05/03 07:26:33;;;;;;;4.13;2.95;;;8.20;76.20;;;;;;4942129;28;20063;-62
2021/05/03 07:28:59;;;;;;;7.30;2.97;;;8.30;75.70;;;;;;4937007;28;20180;-63
2021/05/03 07:31:25;;;;;;;3.20;2.30;;;8.30;75.50;;;;;;4940529;28;20052;-62
2021/05/03 07:33:51;;;;;;;2.10;1.75;;;8.20;75.60;;;;;;4943568;28;20063;-62
2021/05/03 07:36:19;;;;;;;3.35;2.65;;;8.20;75.60;;;;;;4919162;29;20386;-63
2021/05/03 07:38:45;;;;;;;5.10;3.03;;;8.00;76.00;;;;;;4920235;29;20495;-62
2021/05/03 07:41:11;;;;;;;3.20;2.47;;;8.00;76.30;;;;;;4918756;29;20036;-63
2021/05/03 07:43:36;;;;;;;2.65;2.17;;;7.90;76.60;;;;;;4919189;29;20059;-63
2021/05/03 07:46:03;;;;;;;2.05;1.85;;;7.80;77.30;;;;;;4919699;29;20059;-62
2021/05/03 07:48:30;;;;;;;2.72;1.70;;;7.70;76.90;;;;;;4921271;29;20046;-62
2021/05/03 07:50:56;;;;;;;4.57;2.00;;;7.50;76.80;;;;;;4919368;29;20035;-62
2021/05/03 07:53:22;;;;;;;2.75;2.47;;;7.40;77.30;;;;;;4923932;29;20399;-63
2021/05/03 07:55:48;;;;;;;3.03;1.90;;;7.20;77.70;;;;;;4923140;29;20073;-62
2021/05/03 07:58:14;;;;;;;2.00;1.50;;;7.20;78.10;;;;;;4924137;29;20519;-63
2021/05/03 08:00:39;;;;;;;2.47;1.83;;;7.10;78.30;;;;;;4922131;29;20044;-63
2021/05/03 08:03:05;;;;;;;4.35;2.78;;;7.10;78.40;;;;;;4938590;29;20043;-64
2021/05/03 09:25:52;;;;;;;7.25;5.75;;;9.90;74.20;;;;;;6194185;22;883071;-69
2021/05/03 09:28:27;;;;;;;3.35;2.95;;;10.70;77.30;;;;;;6249833;22;20016;-69
2021/05/03 09:30:56;;;;;;;10.70;9.23;;;11.10;78.50;;;;;;6252575;22;20008;-69
2021/05/03 09:33:24;;;;;;;4.68;2.63;;;11.60;76.70;;;;;;6250167;22;20015;-69
2021/05/03 09:36:00;;;;;;;21.10;16.63;;;11.90;75.50;;;;;;6250107;23;20051;-69
2021/05/03 09:38:49;;;;;;;17.73;14.52;;;12.20;73.20;;;;;;6250208;22;20062;-67
2021/05/03 09:41:27;;;;;;;24.95;21.48;;;12.10;72.50;;;;;;6251111;22;20471;-68
2021/05/03 09:43:55;;;;;;;14.80;12.43;;;11.30;72.30;;;;;;6249688;23;20048;-68
2021/05/03 09:46:40;;;;;;;21.38;18.92;;;10.80;74.60;;;;;;6250194;22;20008;-69
2021/05/03 09:49:10;;;;;;;13.02;10.93;;;10.50;74.70;;;;;;6249575;23;20413;-70
2021/05/03 09:51:39;;;;;;;19.17;16.42;;;10.10;76.00;;;;;;6249629;23;20083;-70
2021/05/03 09:54:28;;;;;;;6.57;3.33;;;10.20;76.60;;;;;;6249238;23;20337;-68
2021/05/03 09:57:04;;;;;;;4.97;4.20;;;10.50;77.40;;;;;;6251124;22;20016;-68
2021/05/03 09:59:33;;;;;;;3.50;2.97;;;11.20;76.40;;;;;;6249550;23;20019;-67
2021/05/03 10:02:06;;;;;;;6.00;4.07;;;11.90;74.50;;;;;;6249575;22;20012;-68
2021/05/03 10:04:33;;;;;;;7.07;4.13;;;12.90;72.80;;;;;;6250614;22;20014;-68
2021/05/03 10:06:58;;;;;;;4.55;3.78;;;13.90;70.00;;;;;;6249408;23;20239;-67
2021/05/03 10:09:25;;;;;;;5.82;3.90;;;14.60;67.60;;;;;;6251636;22;20050;-70
2021/05/03 10:11:52;;;;;;;5.82;3.38;;;15.20;66.00;;;;;;6249612;23;20019;-70
2021/05/03 10:14:19;;;;;;;5.03;3.83;;;15.80;64.30;;;;;;6249880;22;20012;-68
2021/05/03 10:16:47;;;;;;;7.18;6.20;;;16.30;62.60;;;;;;6222662;23;20018;-69
2021/05/03 10:19:17;;;;;;;6.28;3.92;;;16.30;61.20;;;;;;6249476;22;20012;-62
2021/05/03 10:21:43;;;;;;;8.02;5.15;;;16.40;58.70;;;;;;6250710;22;20077;-61
2021/05/03 10:24:12;;;;;;;9.52;4.93;;;16.40;58.50;;;;;;6248970;22;20012;-62
2021/05/03 10:26:38;;;;;;;8.63;5.30;;;16.50;58.20;;;;;;6243262;22;20031;-63
2021/05/03 10:29:04;;;;;;;10.73;9.68;;;16.40;58.00;;;;;;6244762;23;20034;-61
2021/05/03 10:32:03;;;;;;;10.93;6.70;;;15.90;57.50;;;;;;6217132;23;20086;-61
2021/05/03 10:34:55;;;;;;;9.75;7.32;;;15.60;58.90;;;;;;6243018;23;20039;-61
2021/05/03 10:37:33;;;;;;;10.77;8.55;;;15.90;58.70;;;;;;6236019;23;20087;-71
2021/05/03 10:40:28;;;;;;;9.05;7.28;;;15.60;57.90;;;;;;6245178;23;20023;-68
2021/05/03 10:43:08;;;;;;;14.00;9.93;;;15.60;58.40;;;;;;6242518;23;20012;-67
2021/05/03 10:45:49;;;;;;;11.00;9.18;;;15.20;58.60;;;;;;6245542;23;20008;-68
2021/05/03 10:48:29;;;;;;;10.43;7.25;;;15.00;59.00;;;;;;6244612;23;20008;-67
2021/05/03 10:50:55;;;;;;;11.25;7.18;;;15.10;59.30;;;;;;6241189;23;20016;-67
2021/05/03 10:55:58;;;;;;;11.77;9.15;;;15.10;59.40;;;;;;6235545;23;20016;-67
2021/05/03 10:58:24;;;;;;;12.32;10.05;;;14.90;59.60;;;;;;6240477;23;20016;-67
2021/05/03 11:01:03;;;;;;;13.25;10.95;;;14.70;59.30;;;;;;6240661;23;20012;-67
2021/05/03 11:03:54;;;;;;;11.48;8.65;;;14.50;59.40;;;;;;6241211;23;20087;-67
2021/05/03 11:06:44;;;;;;;16.45;10.85;;;14.40;60.00;;;;;;6244367;23;20507;-67
2021/05/03 11:09:28;;;;;;;11.50;9.82;;;14.20;60.40;;;;;;6243529;23;20055;-67
2021/05/03 11:11:55;;;;;;;9.63;7.10;;;14.40;60.90;;;;;;6243224;23;20096;-67
2021/05/03 11:14:22;;;;;;;16.10;14.40;;;14.70;60.90;;;;;;6242244;23;20028;-68
2021/05/03 11:17:04;;;;;;;19.08;17.05;;;14.80;59.70;;;;;;6242485;23;20018;-67
2021/05/03 11:19:57;;;;;;;13.27;11.00;;;15.00;59.70;;;;;;6244112;23;20018;-67
2021/05/03 11:22:26;;;;;;;12.07;10.75;;;14.70;59.80;;;;;;6240888;23;20679;-67
2021/05/03 11:24:58;;;;;;;18.33;13.95;;;14.60;60.30;;;;;;6244564;23;20727;-66
2021/05/03 11:27:37;;;;;;;17.67;15.75;;;14.40;60.40;;;;;;6242032;23;20014;-66
2021/05/03 11:30:15;;;;;;;17.33;14.90;;;14.50;61.00;;;;;;6242953;23;20318;-68
2021/05/03 11:32:41;;;;;;;12.63;11.23;;;14.60;61.10;;;;;;6242562;23;20082;-67
2021/05/03 11:35:20;;;;;;;20.60;18.33;;;14.70;61.10;;;;;;6242306;23;20016;-66
2021/05/03 11:38:16;;;;;;;18.80;16.80;;;14.90;61.00;;;;;;6241991;23;20020;-67
2021/05/03 11:44:11;;;;;;;15.88;14.18;;;14.90;61.30;;;;;;6243228;23;20345;-68
2021/05/03 11:46:12;;;;;;;17.35;12.18;;;14.90;61.30;;;;;;6225802;23;20590;-67
2021/05/03 11:48:38;;;;;;;19.63;15.45;;;14.80;61.00;;;;;;6241823;23;20050;-67
2021/05/03 11:51:09;;;;;;;11.25;10.02;;;14.90;60.90;;;;;;6241831;23;20031;-68
2021/05/03 11:53:40;;;;;;;19.05;14.02;;;14.80;60.90;;;;;;6241545;23;20334;-68
2021/05/03 11:56:19;;;;;;;14.18;9.38;;;14.90;61.20;;;;;;6242937;23;20016;-69
2021/05/03 11:58:46;;;;;;;14.50;11.75;;;15.10;61.20;;;;;;6242386;23;20376;-67
2021/05/03 12:01:16;;;;;;;20.25;13.90;;;15.20;60.70;;;;;;6241751;23;20012;-69
2021/05/03 12:03:47;;;;;;;14.20;12.70;;;15.30;59.20;;;;;;6236749;23;20711;-69
2021/05/03 12:06:39;;;;;;;12.85;10.18;;;15.30;58.20;;;;;;6205184;23;20008;-68
2021/05/03 12:09:10;;;;;;;8.15;7.18;;;15.30;57.70;;;;;;6230552;23;20050;-69
2021/05/03 12:11:37;;;;;;;11.27;7.75;;;15.30;57.10;;;;;;6200755;23;20019;-69
2021/05/03 12:14:04;;;;;;;11.27;6.30;;;15.50;56.60;;;;;;6228267;23;20023;-68
2021/05/03 12:16:39;;;;;;;12.32;8.40;;;15.50;56.20;;;;;;6201437;23;20020;-68
2021/05/03 12:19:15;;;;;;;10.57;7.60;;;15.50;55.90;;;;;;6228439;23;20144;-70
2021/05/03 12:21:42;;;;;;;7.53;5.45;;;15.50;56.00;;;;;;6230453;23;20012;-71
2021/05/03 12:24:19;;;;;;;9.80;7.00;;;15.40;56.30;;;;;;6228948;23;20073;-69
2021/05/03 12:26:58;;;;;;;12.70;8.98;;;15.30;56.40;;;;;;6227571;23;20020;-68
2021/05/03 12:29:25;;;;;;;11.57;10.20;;;15.20;56.20;;;;;;6229710;23;20183;-69
2021/05/03 12:31:52;;;;;;;13.32;8.65;;;15.00;56.60;;;;;;6227992;23;20083;-69
2021/05/03 12:34:23;;;;;;;8.43;6.70;;;14.70;57.50;;;;;;6227958;23;20016;-69
2021/05/03 12:37:13;;;;;;;8.52;6.68;;;14.40;57.60;;;;;;6230196;23;20012;-68
2021/05/03 12:40:06;;;;;;;5.75;3.63;;;14.20;57.70;;;;;;6206116;23;20028;-69
2021/05/03 12:42:41;;;;;;;10.50;6.78;;;14.30;59.30;;;;;;6189158;23;20392;-69
2021/05/03 12:45:17;;;;;;;7.18;6.25;;;14.50;59.30;;;;;;6230134;23;20027;-69
2021/05/03 12:48:18;;;;;;;7.15;5.20;;;14.60;59.10;;;;;;6229546;23;20083;-69
2021/05/03 12:50:47;;;;;;;6.93;4.50;;;14.70;59.20;;;;;;6228523;23;20091;-69
2021/05/03 12:58:50;;;;;;;6.63;4.53;;;15.40;58.00;;;;;;6237726;23;20044;-67
2021/05/03 13:06:37;;;;;;;4.78;2.53;;;15.50;55.50;;;;;;6242575;23;20066;-67
2021/05/03 13:29:10;;;;;;;2.47;1.75;;;15.90;55.30;;;;;;6242289;23;20016;-67
2021/05/03 13:31:39;;;;;;;4.25;1.90;;;16.10;55.10;;;;;;6242635;23;20008;-68
2021/05/03 13:34:08;;;;;;;4.95;3.42;;;16.40;54.90;;;;;;6241564;23;20548;-67
2021/05/03 13:36:35;;;;;;;2.50;1.60;;;16.60;54.50;;;;;;6242398;23;20043;-62
2021/05/03 13:39:01;;;;;;;2.70;1.77;;;16.70;54.20;;;;;;6215190;23;20019;-61
2021/05/03 13:41:27;;;;;;;2.80;1.67;;;16.90;54.00;;;;;;6241561;23;20763;-61
2021/05/03 13:43:53;;;;;;;3.28;2.13;;;17.00;53.90;;;;;;6242271;23;20016;-61
2021/05/03 13:46:19;;;;;;;8.30;4.90;;;17.00;53.80;;;;;;6242989;23;20151;-62
2021/05/03 13:48:46;;;;;;;5.38;4.35;;;16.90;53.60;;;;;;6240147;23;20021;-61
2021/05/03 13:51:12;;;;;;;7.50;5.70;;;16.60;53.70;;;;;;6240688;23;20012;-62
2021/05/03 13:53:39;;;;;;;4.65;2.92;;;16.20;53.60;;;;;;6240851;23;20046;-61
2021/05/03 13:56:05;;;;;;;8.15;5.50;;;16.00;54.60;;;;;;6241190;23;20012;-61
2021/05/03 13:58:32;;;;;;;8.00;7.05;;;15.80;54.80;;;;;;6240248;23;20314;-61
2021/05/03 14:00:58;;;;;;;9.48;8.45;;;15.50;55.30;;;;;;6242597;23;20016;-62
2021/05/03 14:03:24;;;;;;;7.43;6.63;;;15.20;56.40;;;;;;6211048;23;20483;-58
2021/05/03 14:05:50;;;;;;;5.47;4.28;;;15.00;56.90;;;;;;6210634;23;20042;-58
2021/05/03 14:08:15;;;;;;;5.93;5.10;;;15.00;57.30;;;;;;6210265;23;20012;-59
2021/05/03 14:10:42;;;;;;;4.65;3.10;;;15.10;57.10;;;;;;6237940;23;20414;-59
2021/05/03 14:13:07;;;;;;;9.25;6.80;;;15.10;57.20;;;;;;6238227;23;20405;-59
2021/05/03 14:15:36;;;;;;;7.18;5.70;;;14.90;57.10;;;;;;6236322;23;20016;-59
2021/05/03 14:18:02;;;;;;;9.23;6.38;;;14.70;57.70;;;;;;6207510;23;20023;-60
2021/05/03 14:20:28;;;;;;;8.23;7.43;;;14.60;57.90;;;;;;6216666;23;20008;-62
2021/05/03 14:22:55;;;;;;;8.45;7.05;;;14.60;57.80;;;;;;6244848;23;20016;-61
2021/05/03 14:25:21;;;;;;;8.48;6.82;;;14.40;57.70;;;;;;6215316;23;20032;-62
2021/05/03 14:27:49;;;;;;;7.22;5.72;;;14.40;58.30;;;;;;6213964;23;20349;-62
2021/05/03 14:33:11;;;;;;;5.13;4.18;;;14.30;58.30;;;;;;6242698;23;20066;-61
2021/05/03 14:35:37;;;;;;;5.63;3.40;;;14.40;58.60;;;;;;6242713;23;20023;-61
2021/05/03 14:38:03;;;;;;;3.28;2.97;;;14.50;58.50;;;;;;6243681;23;20012;-62
2021/05/03 14:40:29;;;;;;;4.63;3.50;;;14.70;58.10;;;;;;6243084;23;20023;-62
2021/05/03 14:42:58;;;;;;;5.97;5.03;;;14.70;57.80;;;;;;6243226;23;20039;-61
2021/05/03 14:45:26;;;;;;;4.57;3.50;;;14.80;57.60;;;;;;6216544;23;20016;-61
2021/05/03 14:47:59;;;;;;;6.38;3.30;;;14.90;57.20;;;;;;6242031;23;20843;-60
2021/05/03 14:50:44;;;;;;;5.82;3.58;;;15.00;57.60;;;;;;6243552;23;20023;-61
2021/05/03 14:55:37;;;;;;;4.13;2.53;;;15.20;57.20;;;;;;6242400;23;20376;-61
2021/05/03 14:58:03;;;;;;;2.58;2.15;;;15.30;57.30;;;;;;6243539;23;20464;-61
2021/05/03 15:00:30;;;;;;;2.67;2.33;;;15.40;57.20;;;;;;6241469;23;20012;-65
2021/05/03 15:02:56;;;;;;;4.50;3.25;;;15.50;56.90;;;;;;6242933;23;20062;-64
2021/05/03 15:05:23;;;;;;;5.03;2.50;;;15.30;56.10;;;;;;6242330;23;20031;-62
2021/05/03 15:07:48;;;;;;;4.97;1.98;;;15.30;56.00;;;;;;6242941;23;20358;-63
2021/05/03 15:10:15;;;;;;;4.35;2.67;;;15.20;55.70;;;;;;6243502;23;20035;-62
2021/05/03 15:12:49;;;;;;;2.95;1.95;;;15.00;55.00;;;;;;6242496;23;20467;-63
2021/05/03 15:18:11;;;;;;;5.68;2.50;;;14.90;55.10;;;;;;6244633;23;20008;-62
2021/05/03 15:23:06;;;;;;;2.83;1.45;;;15.00;55.60;;;;;;6241810;23;20008;-62